Lincoln Park, Illinois
Current Conditions -  °F | °C
As of 3:53 PM on Wednesday 22 Oct 2014 (Local Time) from KMDW Reporting Station
Few Clouds Few Clouds  
Wind Chill: 54°   Ceiling: Unl
Heat Index: 54°   Visibility: 10mi
Dew Point: 36°   Wind: 8mph
Humidity: 51%   Direction: 80°E
Pressure: 30.3"   Gusts: NA
Location:  41.9225°N, 87.651°W
Report Text: KMDW 222053Z 08007KT 050V110 10SM FEW020 12/02 A3030 RMK AO2 SLP264 FU FEW020 T01220022 56013
Loading
Personal Weather Stations






























Interactive Weather Map
Tropical Storm Tracking
New forecast layout! Learn more

10-Day Weather Forecast

Advertisements
Track Severe Weather on mobile